sensor_id;sensor_type;location;lat;lon;timestamp;P1;durP1;ratioP1;P2;durP2;ratioP2
28003;SDS011;15330;51.234;6.754;2023-04-29T00:01:30;30.50;;;18.27;;
28003;SDS011;15330;51.234;6.754;2023-04-29T00:03:55;34.70;;;20.67;;
28003;SDS011;15330;51.234;6.754;2023-04-29T00:06:21;41.42;;;24.83;;
28003;SDS011;15330;51.234;6.754;2023-04-29T00:08:47;45.22;;;26.27;;
28003;SDS011;15330;51.234;6.754;2023-04-29T00:11:12;43.45;;;27.27;;
28003;SDS011;15330;51.234;6.754;2023-04-29T00:13:38;49.45;;;30.90;;
28003;SDS011;15330;51.234;6.754;2023-04-29T00:16:05;52.47;;;31.52;;
28003;SDS011;15330;51.234;6.754;2023-04-29T00:18:31;57.95;;;31.73;;
28003;SDS011;15330;51.234;6.754;2023-04-29T00:20:56;54.60;;;32.63;;
28003;SDS011;15330;51.234;6.754;2023-04-29T00:23:22;58.63;;;33.45;;
28003;SDS011;15330;51.234;6.754;2023-04-29T00:25:47;60.40;;;34.63;;
28003;SDS011;15330;51.234;6.754;2023-04-29T00:28:13;63.97;;;35.42;;
28003;SDS011;15330;51.234;6.754;2023-04-29T00:30:38;71.82;;;38.85;;
28003;SDS011;15330;51.234;6.754;2023-04-29T00:33:04;72.43;;;39.45;;
28003;SDS011;15330;51.234;6.754;2023-04-29T00:35:29;78.75;;;42.58;;
28003;SDS011;15330;51.234;6.754;2023-04-29T00:37:54;75.95;;;41.42;;
28003;SDS011;15330;51.234;6.754;2023-04-29T00:40:20;81.07;;;43.63;;
28003;SDS011;15330;51.234;6.754;2023-04-29T00:42:45;86.45;;;45.15;;
28003;SDS011;15330;51.234;6.754;2023-04-29T00:45:11;85.25;;;46.60;;
28003;SDS011;15330;51.234;6.754;2023-04-29T00:47:37;88.80;;;45.03;;
28003;SDS011;15330;51.234;6.754;2023-04-29T00:50:03;89.53;;;46.20;;
28003;SDS011;15330;51.234;6.754;2023-04-29T00:52:30;84.82;;;46.72;;
28003;SDS011;15330;51.234;6.754;2023-04-29T00:54:56;87.05;;;46.25;;
28003;SDS011;15330;51.234;6.754;2023-04-29T00:57:22;91.95;;;47.65;;
28003;SDS011;15330;51.234;6.754;2023-04-29T00:59:50;90.15;;;48.75;;
28003;SDS011;15330;51.234;6.754;2023-04-29T01:02:16;93.53;;;49.30;;
28003;SDS011;15330;51.234;6.754;2023-04-29T01:04:42;91.70;;;48.90;;
28003;SDS011;15330;51.234;6.754;2023-04-29T01:13:16;94.75;;;50.40;;
28003;SDS011;15330;51.234;6.754;2023-04-29T01:15:28;101.68;;;52.85;;
28003;SDS011;15330;51.234;6.754;2023-04-29T01:20:30;105.82;;;53.40;;
28003;SDS011;15330;51.234;6.754;2023-04-29T01:22:57;102.00;;;54.20;;
28003;SDS011;15330;51.234;6.754;2023-04-29T01:25:22;107.38;;;53.33;;
28003;SDS011;15330;51.234;6.754;2023-04-29T01:28:35;106.05;;;54.75;;
28003;SDS011;15330;51.234;6.754;2023-04-29T01:30:56;95.22;;;50.22;;
28003;SDS011;15330;51.234;6.754;2023-04-29T01:33:47;100.40;;;51.50;;
28003;SDS011;15330;51.234;6.754;2023-04-29T01:39:02;98.25;;;47.20;;
28003;SDS011;15330;51.234;6.754;2023-04-29T01:41:44;95.50;;;48.83;;
28003;SDS011;15330;51.234;6.754;2023-04-29T01:44:19;98.63;;;48.72;;
28003;SDS011;15330;51.234;6.754;2023-04-29T01:46:51;102.35;;;49.88;;
28003;SDS011;15330;51.234;6.754;2023-04-29T01:49:23;111.22;;;48.92;;
28003;SDS011;15330;51.234;6.754;2023-04-29T01:51:49;108.07;;;50.13;;
28003;SDS011;15330;51.234;6.754;2023-04-29T01:54:14;111.45;;;47.47;;
28003;SDS011;15330;51.234;6.754;2023-04-29T01:56:40;121.10;;;49.95;;
28003;SDS011;15330;51.234;6.754;2023-04-29T01:59:05;111.00;;;47.92;;
28003;SDS011;15330;51.234;6.754;2023-04-29T02:01:32;113.28;;;49.85;;
28003;SDS011;15330;51.234;6.754;2023-04-29T02:03:57;113.78;;;48.80;;
28003;SDS011;15330;51.234;6.754;2023-04-29T02:06:23;112.55;;;46.97;;
28003;SDS011;15330;51.234;6.754;2023-04-29T02:08:49;119.13;;;49.08;;
28003;SDS011;15330;51.234;6.754;2023-04-29T02:11:14;111.55;;;47.22;;
28003;SDS011;15330;51.234;6.754;2023-04-29T02:13:40;103.30;;;44.60;;
28003;SDS011;15330;51.234;6.754;2023-04-29T02:16:09;115.72;;;48.40;;
28003;SDS011;15330;51.234;6.754;2023-04-29T02:18:36;112.35;;;47.65;;
28003;SDS011;15330;51.234;6.754;2023-04-29T02:21:01;118.47;;;47.65;;
28003;SDS011;15330;51.234;6.754;2023-04-29T02:23:27;117.47;;;49.53;;
28003;SDS011;15330;51.234;6.754;2023-04-29T02:25:53;110.97;;;46.42;;
28003;SDS011;15330;51.234;6.754;2023-04-29T02:28:19;119.18;;;48.63;;
28003;SDS011;15330;51.234;6.754;2023-04-29T02:30:44;102.35;;;43.63;;
28003;SDS011;15330;51.234;6.754;2023-04-29T02:33:09;88.22;;;39.33;;
28003;SDS011;15330;51.234;6.754;2023-04-29T02:35:35;87.70;;;39.25;;
28003;SDS011;15330;51.234;6.754;2023-04-29T02:38:00;90.43;;;39.22;;
28003;SDS011;15330;51.234;6.754;2023-04-29T02:40:26;84.78;;;37.80;;
28003;SDS011;15330;51.234;6.754;2023-04-29T02:42:51;87.25;;;37.95;;
28003;SDS011;15330;51.234;6.754;2023-04-29T02:45:17;79.00;;;36.88;;
28003;SDS011;15330;51.234;6.754;2023-04-29T02:47:42;88.25;;;38.05;;
28003;SDS011;15330;51.234;6.754;2023-04-29T02:50:08;80.70;;;37.33;;
28003;SDS011;15330;51.234;6.754;2023-04-29T02:52:34;88.15;;;39.83;;
28003;SDS011;15330;51.234;6.754;2023-04-29T02:54:59;88.40;;;39.13;;
28003;SDS011;15330;51.234;6.754;2023-04-29T02:57:24;89.70;;;39.45;;
28003;SDS011;15330;51.234;6.754;2023-04-29T02:59:50;92.25;;;38.70;;
28003;SDS011;15330;51.234;6.754;2023-04-29T03:02:15;86.88;;;38.67;;
28003;SDS011;15330;51.234;6.754;2023-04-29T03:04:41;91.38;;;37.90;;
28003;SDS011;15330;51.234;6.754;2023-04-29T03:07:06;87.25;;;39.80;;
28003;SDS011;15330;51.234;6.754;2023-04-29T03:09:32;95.32;;;41.85;;
28003;SDS011;15330;51.234;6.754;2023-04-29T03:11:58;96.75;;;41.95;;
28003;SDS011;15330;51.234;6.754;2023-04-29T03:14:23;103.47;;;43.08;;
28003;SDS011;15330;51.234;6.754;2023-04-29T03:16:49;109.38;;;43.78;;
28003;SDS011;15330;51.234;6.754;2023-04-29T03:19:14;100.85;;;43.33;;
28003;SDS011;15330;51.234;6.754;2023-04-29T03:21:40;104.50;;;42.92;;
28003;SDS011;15330;51.234;6.754;2023-04-29T03:24:06;100.03;;;44.45;;
28003;SDS011;15330;51.234;6.754;2023-04-29T03:26:31;92.55;;;42.78;;
28003;SDS011;15330;51.234;6.754;2023-04-29T03:28:56;95.40;;;44.78;;
28003;SDS011;15330;51.234;6.754;2023-04-29T03:31:23;93.05;;;42.33;;
28003;SDS011;15330;51.234;6.754;2023-04-29T03:33:49;90.72;;;41.72;;
28003;SDS011;15330;51.234;6.754;2023-04-29T03:36:15;101.18;;;45.95;;
28003;SDS011;15330;51.234;6.754;2023-04-29T03:38:40;102.85;;;42.85;;
28003;SDS011;15330;51.234;6.754;2023-04-29T03:41:06;95.85;;;43.20;;
28003;SDS011;15330;51.234;6.754;2023-04-29T03:43:32;92.90;;;42.83;;
28003;SDS011;15330;51.234;6.754;2023-04-29T03:45:57;98.20;;;44.72;;
28003;SDS011;15330;51.234;6.754;2023-04-29T03:48:23;91.72;;;42.53;;
28003;SDS011;15330;51.234;6.754;2023-04-29T03:50:48;100.63;;;43.05;;
28003;SDS011;15330;51.234;6.754;2023-04-29T03:53:14;95.88;;;43.58;;
28003;SDS011;15330;51.234;6.754;2023-04-29T03:55:39;88.82;;;41.67;;
28003;SDS011;15330;51.234;6.754;2023-04-29T03:58:05;86.38;;;39.85;;
28003;SDS011;15330;51.234;6.754;2023-04-29T04:00:31;81.07;;;38.92;;
28003;SDS011;15330;51.234;6.754;2023-04-29T04:02:57;86.53;;;40.10;;
28003;SDS011;15330;51.234;6.754;2023-04-29T04:05:22;83.35;;;39.53;;
28003;SDS011;15330;51.234;6.754;2023-04-29T04:07:49;81.55;;;40.42;;
28003;SDS011;15330;51.234;6.754;2023-04-29T04:10:16;84.38;;;38.67;;
28003;SDS011;15330;51.234;6.754;2023-04-29T04:12:41;70.40;;;35.72;;
28003;SDS011;15330;51.234;6.754;2023-04-29T04:15:07;70.90;;;36.00;;
28003;SDS011;15330;51.234;6.754;2023-04-29T04:17:32;76.22;;;35.10;;
28003;SDS011;15330;51.234;6.754;2023-04-29T04:19:58;69.25;;;33.00;;
28003;SDS011;15330;51.234;6.754;2023-04-29T04:22:23;67.47;;;34.08;;
28003;SDS011;15330;51.234;6.754;2023-04-29T04:24:48;63.70;;;33.00;;
28003;SDS011;15330;51.234;6.754;2023-04-29T04:27:14;67.55;;;32.42;;
28003;SDS011;15330;51.234;6.754;2023-04-29T04:29:39;63.65;;;31.83;;
28003;SDS011;15330;51.234;6.754;2023-04-29T04:32:05;62.80;;;32.15;;
28003;SDS011;15330;51.234;6.754;2023-04-29T04:34:30;56.33;;;29.23;;
28003;SDS011;15330;51.234;6.754;2023-04-29T04:36:56;52.30;;;26.40;;
28003;SDS011;15330;51.234;6.754;2023-04-29T04:39:21;52.25;;;25.98;;
28003;SDS011;15330;51.234;6.754;2023-04-29T04:41:47;54.00;;;28.38;;
28003;SDS011;15330;51.234;6.754;2023-04-29T04:44:12;49.17;;;25.73;;
28003;SDS011;15330;51.234;6.754;2023-04-29T04:46:38;52.05;;;27.05;;
28003;SDS011;15330;51.234;6.754;2023-04-29T04:49:04;47.13;;;25.83;;
28003;SDS011;15330;51.234;6.754;2023-04-29T04:51:29;51.72;;;25.98;;
28003;SDS011;15330;51.234;6.754;2023-04-29T04:53:55;49.72;;;26.55;;
28003;SDS011;15330;51.234;6.754;2023-04-29T04:56:20;45.17;;;24.08;;
28003;SDS011;15330;51.234;6.754;2023-04-29T04:58:46;42.88;;;23.23;;
28003;SDS011;15330;51.234;6.754;2023-04-29T05:01:11;47.97;;;25.35;;
28003;SDS011;15330;51.234;6.754;2023-04-29T05:03:37;41.33;;;22.50;;
28003;SDS011;15330;51.234;6.754;2023-04-29T05:06:02;41.90;;;22.08;;
28003;SDS011;15330;51.234;6.754;2023-04-29T05:08:28;42.38;;;23.55;;
28003;SDS011;15330;51.234;6.754;2023-04-29T05:10:54;41.90;;;22.65;;
28003;SDS011;15330;51.234;6.754;2023-04-29T05:13:19;41.38;;;23.98;;
28003;SDS011;15330;51.234;6.754;2023-04-29T05:15:45;39.35;;;21.83;;
28003;SDS011;15330;51.234;6.754;2023-04-29T05:18:10;40.90;;;22.92;;
28003;SDS011;15330;51.234;6.754;2023-04-29T05:20:36;43.03;;;22.33;;
28003;SDS011;15330;51.234;6.754;2023-04-29T05:23:02;39.28;;;22.48;;
28003;SDS011;15330;51.234;6.754;2023-04-29T05:25:28;42.35;;;22.55;;
28003;SDS011;15330;51.234;6.754;2023-04-29T05:27:53;41.20;;;22.85;;
28003;SDS011;15330;51.234;6.754;2023-04-29T05:30:19;40.33;;;21.90;;
28003;SDS011;15330;51.234;6.754;2023-04-29T05:32:45;40.78;;;22.42;;
28003;SDS011;15330;51.234;6.754;2023-04-29T05:35:10;39.80;;;23.63;;
28003;SDS011;15330;51.234;6.754;2023-04-29T05:37:36;43.38;;;23.77;;
28003;SDS011;15330;51.234;6.754;2023-04-29T05:40:01;43.42;;;24.15;;
28003;SDS011;15330;51.234;6.754;2023-04-29T05:42:28;42.78;;;22.35;;
28003;SDS011;15330;51.234;6.754;2023-04-29T05:44:53;38.47;;;22.40;;
28003;SDS011;15330;51.234;6.754;2023-04-29T05:47:19;38.20;;;22.27;;
28003;SDS011;15330;51.234;6.754;2023-04-29T05:49:44;48.00;;;26.25;;
28003;SDS011;15330;51.234;6.754;2023-04-29T05:52:09;54.55;;;30.98;;
28003;SDS011;15330;51.234;6.754;2023-04-29T05:54:35;42.05;;;24.20;;
28003;SDS011;15330;51.234;6.754;2023-04-29T05:57:01;47.30;;;25.17;;
28003;SDS011;15330;51.234;6.754;2023-04-29T05:59:30;41.65;;;23.65;;
28003;SDS011;15330;51.234;6.754;2023-04-29T06:01:56;48.25;;;25.33;;
28003;SDS011;15330;51.234;6.754;2023-04-29T06:04:23;40.80;;;23.10;;
28003;SDS011;15330;51.234;6.754;2023-04-29T06:06:49;47.45;;;24.67;;
28003;SDS011;15330;51.234;6.754;2023-04-29T06:09:15;46.80;;;26.27;;
28003;SDS011;15330;51.234;6.754;2023-04-29T06:11:40;39.75;;;23.23;;
28003;SDS011;15330;51.234;6.754;2023-04-29T06:14:06;41.35;;;23.65;;
28003;SDS011;15330;51.234;6.754;2023-04-29T06:16:31;43.60;;;25.23;;
28003;SDS011;15330;51.234;6.754;2023-04-29T06:18:57;44.20;;;24.95;;
28003;SDS011;15330;51.234;6.754;2023-04-29T06:21:23;40.65;;;24.77;;
28003;SDS011;15330;51.234;6.754;2023-04-29T06:23:48;42.33;;;23.85;;
28003;SDS011;15330;51.234;6.754;2023-04-29T06:26:14;43.58;;;24.88;;
28003;SDS011;15330;51.234;6.754;2023-04-29T06:28:40;45.03;;;24.00;;
28003;SDS011;15330;51.234;6.754;2023-04-29T06:31:05;40.53;;;23.05;;
28003;SDS011;15330;51.234;6.754;2023-04-29T06:33:30;45.00;;;24.55;;
28003;SDS011;15330;51.234;6.754;2023-04-29T06:35:58;42.35;;;23.77;;
28003;SDS011;15330;51.234;6.754;2023-04-29T06:38:23;41.58;;;22.02;;
28003;SDS011;15330;51.234;6.754;2023-04-29T06:40:49;41.05;;;23.20;;
28003;SDS011;15330;51.234;6.754;2023-04-29T06:43:14;39.25;;;23.15;;
28003;SDS011;15330;51.234;6.754;2023-04-29T06:45:39;40.25;;;22.77;;
28003;SDS011;15330;51.234;6.754;2023-04-29T06:48:05;36.83;;;22.63;;
28003;SDS011;15330;51.234;6.754;2023-04-29T06:50:30;38.88;;;22.38;;
28003;SDS011;15330;51.234;6.754;2023-04-29T06:52:56;43.45;;;23.33;;
28003;SDS011;15330;51.234;6.754;2023-04-29T06:55:21;37.15;;;22.20;;
28003;SDS011;15330;51.234;6.754;2023-04-29T06:57:46;39.72;;;21.23;;
28003;SDS011;15330;51.234;6.754;2023-04-29T07:00:12;41.20;;;23.05;;
28003;SDS011;15330;51.234;6.754;2023-04-29T07:02:39;34.42;;;22.08;;
28003;SDS011;15330;51.234;6.754;2023-04-29T07:05:05;41.55;;;23.60;;
28003;SDS011;15330;51.234;6.754;2023-04-29T07:07:31;37.75;;;22.92;;
28003;SDS011;15330;51.234;6.754;2023-04-29T07:09:56;35.63;;;20.48;;
28003;SDS011;15330;51.234;6.754;2023-04-29T07:12:21;39.70;;;21.02;;
28003;SDS011;15330;51.234;6.754;2023-04-29T07:14:47;39.25;;;20.33;;
28003;SDS011;15330;51.234;6.754;2023-04-29T07:17:12;37.70;;;21.02;;
28003;SDS011;15330;51.234;6.754;2023-04-29T07:19:37;37.03;;;22.02;;
28003;SDS011;15330;51.234;6.754;2023-04-29T07:22:03;37.22;;;22.15;;
28003;SDS011;15330;51.234;6.754;2023-04-29T07:24:28;37.17;;;20.77;;
28003;SDS011;15330;51.234;6.754;2023-04-29T07:26:53;37.15;;;21.17;;
28003;SDS011;15330;51.234;6.754;2023-04-29T07:29:19;31.88;;;19.42;;
28003;SDS011;15330;51.234;6.754;2023-04-29T07:31:44;37.70;;;20.85;;
28003;SDS011;15330;51.234;6.754;2023-04-29T07:34:10;42.90;;;22.52;;
28003;SDS011;15330;51.234;6.754;2023-04-29T07:36:37;38.70;;;23.45;;
28003;SDS011;15330;51.234;6.754;2023-04-29T07:39:02;34.33;;;20.70;;
28003;SDS011;15330;51.234;6.754;2023-04-29T07:41:28;34.30;;;19.98;;
28003;SDS011;15330;51.234;6.754;2023-04-29T07:43:54;39.85;;;23.02;;
28003;SDS011;15330;51.234;6.754;2023-04-29T07:46:19;38.67;;;21.00;;
28003;SDS011;15330;51.234;6.754;2023-04-29T07:48:45;34.72;;;19.95;;
28003;SDS011;15330;51.234;6.754;2023-04-29T07:51:13;32.70;;;20.70;;
28003;SDS011;15330;51.234;6.754;2023-04-29T07:53:39;36.15;;;19.42;;
28003;SDS011;15330;51.234;6.754;2023-04-29T07:56:06;34.47;;;21.05;;
28003;SDS011;15330;51.234;6.754;2023-04-29T07:58:32;32.47;;;20.98;;
28003;SDS011;15330;51.234;6.754;2023-04-29T08:01:04;29.02;;;19.48;;
28003;SDS011;15330;51.234;6.754;2023-04-29T08:03:33;36.40;;;20.63;;
28003;SDS011;15330;51.234;6.754;2023-04-29T08:06:02;28.88;;;18.00;;
28003;SDS011;15330;51.234;6.754;2023-04-29T08:08:28;31.85;;;18.88;;
28003;SDS011;15330;51.234;6.754;2023-04-29T08:10:57;34.45;;;20.85;;
28003;SDS011;15330;51.234;6.754;2023-04-29T08:13:23;34.03;;;20.30;;
28003;SDS011;15330;51.234;6.754;2023-04-29T08:15:49;34.92;;;18.50;;
28003;SDS011;15330;51.234;6.754;2023-04-29T08:18:14;35.03;;;21.42;;
28003;SDS011;15330;51.234;6.754;2023-04-29T08:20:40;29.77;;;18.40;;
28003;SDS011;15330;51.234;6.754;2023-04-29T08:23:05;41.38;;;24.75;;
28003;SDS011;15330;51.234;6.754;2023-04-29T08:25:31;32.78;;;18.92;;
28003;SDS011;15330;51.234;6.754;2023-04-29T08:27:57;32.50;;;20.05;;
28003;SDS011;15330;51.234;6.754;2023-04-29T08:30:22;38.72;;;23.48;;
28003;SDS011;15330;51.234;6.754;2023-04-29T08:32:48;33.67;;;20.63;;
28003;SDS011;15330;51.234;6.754;2023-04-29T08:35:14;34.67;;;20.92;;
28003;SDS011;15330;51.234;6.754;2023-04-29T08:37:40;34.00;;;20.75;;
28003;SDS011;15330;51.234;6.754;2023-04-29T08:40:06;32.70;;;20.05;;
28003;SDS011;15330;51.234;6.754;2023-04-29T08:42:34;31.88;;;20.83;;
28003;SDS011;15330;51.234;6.754;2023-04-29T08:45:01;33.03;;;20.88;;
28003;SDS011;15330;51.234;6.754;2023-04-29T08:47:30;31.70;;;20.33;;
28003;SDS011;15330;51.234;6.754;2023-04-29T08:50:03;40.50;;;21.90;;
28003;SDS011;15330;51.234;6.754;2023-04-29T08:52:30;36.27;;;21.57;;
28003;SDS011;15330;51.234;6.754;2023-04-29T08:54:56;33.90;;;21.00;;
28003;SDS011;15330;51.234;6.754;2023-04-29T08:57:27;35.97;;;22.75;;
28003;SDS011;15330;51.234;6.754;2023-04-29T08:59:54;37.65;;;22.73;;
28003;SDS011;15330;51.234;6.754;2023-04-29T09:02:19;39.20;;;23.33;;
28003;SDS011;15330;51.234;6.754;2023-04-29T09:04:59;35.45;;;21.88;;
28003;SDS011;15330;51.234;6.754;2023-04-29T09:07:31;40.45;;;25.13;;
28003;SDS011;15330;51.234;6.754;2023-04-29T09:09:57;39.75;;;24.17;;
28003;SDS011;15330;51.234;6.754;2023-04-29T09:12:23;42.40;;;25.73;;
28003;SDS011;15330;51.234;6.754;2023-04-29T09:14:49;41.95;;;25.30;;
28003;SDS011;15330;51.234;6.754;2023-04-29T09:17:14;42.88;;;24.88;;
28003;SDS011;15330;51.234;6.754;2023-04-29T09:19:40;46.97;;;25.73;;
28003;SDS011;15330;51.234;6.754;2023-04-29T09:22:06;45.60;;;24.02;;
28003;SDS011;15330;51.234;6.754;2023-04-29T09:24:32;43.70;;;25.58;;
28003;SDS011;15330;51.234;6.754;2023-04-29T09:26:58;47.55;;;26.40;;
28003;SDS011;15330;51.234;6.754;2023-04-29T09:29:24;49.45;;;27.60;;
28003;SDS011;15330;51.234;6.754;2023-04-29T09:31:49;47.17;;;27.88;;
28003;SDS011;15330;51.234;6.754;2023-04-29T09:34:29;48.83;;;29.02;;
28003;SDS011;15330;51.234;6.754;2023-04-29T09:37:05;45.03;;;27.67;;
28003;SDS011;15330;51.234;6.754;2023-04-29T09:39:48;52.65;;;28.95;;
28003;SDS011;15330;51.234;6.754;2023-04-29T09:42:14;44.60;;;27.35;;
28003;SDS011;15330;51.234;6.754;2023-04-29T09:44:40;46.92;;;28.98;;
28003;SDS011;15330;51.234;6.754;2023-04-29T09:47:07;58.55;;;30.80;;
28003;SDS011;15330;51.234;6.754;2023-04-29T09:49:36;51.85;;;29.80;;
28003;SDS011;15330;51.234;6.754;2023-04-29T09:52:08;49.72;;;30.73;;
28003;SDS011;15330;51.234;6.754;2023-04-29T09:54:38;48.58;;;30.38;;
28003;SDS011;15330;51.234;6.754;2023-04-29T09:57:06;56.95;;;32.28;;
28003;SDS011;15330;51.234;6.754;2023-04-29T09:59:34;50.30;;;30.17;;
28003;SDS011;15330;51.234;6.754;2023-04-29T10:02:02;53.55;;;31.83;;
28003;SDS011;15330;51.234;6.754;2023-04-29T10:04:34;67.85;;;37.03;;
28003;SDS011;15330;51.234;6.754;2023-04-29T10:07:02;63.35;;;33.75;;
28003;SDS011;15330;51.234;6.754;2023-04-29T10:09:28;61.22;;;35.15;;
28003;SDS011;15330;51.234;6.754;2023-04-29T10:11:54;63.42;;;34.75;;
28003;SDS011;15330;51.234;6.754;2023-04-29T10:14:20;69.15;;;38.33;;
28003;SDS011;15330;51.234;6.754;2023-04-29T10:16:47;65.70;;;39.03;;
28003;SDS011;15330;51.234;6.754;2023-04-29T10:19:46;62.83;;;36.85;;
28003;SDS011;15330;51.234;6.754;2023-04-29T10:22:44;61.45;;;33.88;;
28003;SDS011;15330;51.234;6.754;2023-04-29T10:25:11;68.47;;;39.08;;
28003;SDS011;15330;51.234;6.754;2023-04-29T10:27:38;71.30;;;40.38;;
28003;SDS011;15330;51.234;6.754;2023-04-29T10:30:08;79.85;;;44.85;;
28003;SDS011;15330;51.234;6.754;2023-04-29T10:32:39;90.70;;;47.90;;
28003;SDS011;15330;51.234;6.754;2023-04-29T10:35:06;84.30;;;47.38;;
28003;SDS011;15330;51.234;6.754;2023-04-29T10:37:34;89.22;;;47.17;;
28003;SDS011;15330;51.234;6.754;2023-04-29T10:40:09;82.68;;;47.33;;
28003;SDS011;15330;51.234;6.754;2023-04-29T10:42:47;96.90;;;53.83;;
28003;SDS011;15330;51.234;6.754;2023-04-29T10:45:26;108.82;;;58.55;;
28003;SDS011;15330;51.234;6.754;2023-04-29T10:53:00;89.38;;;52.08;;
28003;SDS011;15330;51.234;6.754;2023-04-29T10:55:26;88.15;;;48.38;;
28003;SDS011;15330;51.234;6.754;2023-04-29T10:57:52;78.72;;;44.28;;
28003;SDS011;15330;51.234;6.754;2023-04-29T11:00:27;74.00;;;44.92;;
28003;SDS011;15330;51.234;6.754;2023-04-29T11:02:54;74.28;;;45.55;;
28003;SDS011;15330;51.234;6.754;2023-04-29T11:05:30;77.35;;;44.80;;
28003;SDS011;15330;51.234;6.754;2023-04-29T11:10:51;70.13;;;43.03;;
28003;SDS011;15330;51.234;6.754;2023-04-29T11:13:27;63.80;;;39.50;;
28003;SDS011;15330;51.234;6.754;2023-04-29T11:16:03;68.50;;;40.60;;
28003;SDS011;15330;51.234;6.754;2023-04-29T11:18:33;65.53;;;39.08;;
28003;SDS011;15330;51.234;6.754;2023-04-29T11:23:40;60.92;;;37.28;;
28003;SDS011;15330;51.234;6.754;2023-04-29T11:26:06;59.45;;;36.35;;
28003;SDS011;15330;51.234;6.754;2023-04-29T11:28:31;64.57;;;36.78;;
28003;SDS011;15330;51.234;6.754;2023-04-29T11:30:57;72.75;;;40.13;;
28003;SDS011;15330;51.234;6.754;2023-04-29T11:33:23;59.45;;;37.88;;
28003;SDS011;15330;51.234;6.754;2023-04-29T11:35:51;64.82;;;40.22;;
28003;SDS011;15330;51.234;6.754;2023-04-29T11:38:16;58.20;;;39.20;;
28003;SDS011;15330;51.234;6.754;2023-04-29T11:40:47;64.43;;;39.78;;
28003;SDS011;15330;51.234;6.754;2023-04-29T11:43:16;62.10;;;37.42;;
28003;SDS011;15330;51.234;6.754;2023-04-29T11:45:45;58.55;;;37.47;;
28003;SDS011;15330;51.234;6.754;2023-04-29T11:50:47;63.60;;;39.25;;
28003;SDS011;15330;51.234;6.754;2023-04-29T11:53:14;58.45;;;38.25;;
28003;SDS011;15330;51.234;6.754;2023-04-29T11:55:43;55.38;;;37.60;;
28003;SDS011;15330;51.234;6.754;2023-04-29T11:58:09;56.40;;;37.78;;
28003;SDS011;15330;51.234;6.754;2023-04-29T12:00:35;59.25;;;38.45;;
28003;SDS011;15330;51.234;6.754;2023-04-29T12:03:00;57.60;;;36.92;;
28003;SDS011;15330;51.234;6.754;2023-04-29T12:05:26;52.60;;;35.92;;
28003;SDS011;15330;51.234;6.754;2023-04-29T12:07:51;55.95;;;37.05;;
28003;SDS011;15330;51.234;6.754;2023-04-29T12:10:19;53.95;;;35.55;;
28003;SDS011;15330;51.234;6.754;2023-04-29T12:12:45;54.75;;;37.85;;
28003;SDS011;15330;51.234;6.754;2023-04-29T12:15:12;59.03;;;38.95;;
28003;SDS011;15330;51.234;6.754;2023-04-29T12:17:38;56.40;;;35.42;;
28003;SDS011;15330;51.234;6.754;2023-04-29T12:20:05;55.17;;;37.28;;
28003;SDS011;15330;51.234;6.754;2023-04-29T12:22:33;54.10;;;38.33;;
28003;SDS011;15330;51.234;6.754;2023-04-29T12:24:58;48.55;;;35.67;;
28003;SDS011;15330;51.234;6.754;2023-04-29T12:27:26;50.88;;;34.88;;
28003;SDS011;15330;51.234;6.754;2023-04-29T12:29:52;50.47;;;35.88;;
28003;SDS011;15330;51.234;6.754;2023-04-29T12:32:20;48.35;;;34.78;;
28003;SDS011;15330;51.234;6.754;2023-04-29T12:34:46;52.17;;;35.97;;
28003;SDS011;15330;51.234;6.754;2023-04-29T12:37:15;54.55;;;33.92;;
28003;SDS011;15330;51.234;6.754;2023-04-29T12:39:40;44.35;;;31.75;;
28003;SDS011;15330;51.234;6.754;2023-04-29T12:42:06;45.95;;;32.20;;
28003;SDS011;15330;51.234;6.754;2023-04-29T12:44:39;45.55;;;32.40;;
28003;SDS011;15330;51.234;6.754;2023-04-29T12:47:10;53.22;;;35.20;;
28003;SDS011;15330;51.234;6.754;2023-04-29T12:49:37;41.53;;;29.65;;
28003;SDS011;15330;51.234;6.754;2023-04-29T12:52:06;35.80;;;26.48;;
28003;SDS011;15330;51.234;6.754;2023-04-29T12:54:34;35.58;;;26.70;;
28003;SDS011;15330;51.234;6.754;2023-04-29T12:57:04;38.35;;;27.40;;
28003;SDS011;15330;51.234;6.754;2023-04-29T12:59:30;39.65;;;28.05;;
28003;SDS011;15330;51.234;6.754;2023-04-29T13:01:56;39.03;;;27.48;;
28003;SDS011;15330;51.234;6.754;2023-04-29T13:04:21;34.72;;;26.38;;
28003;SDS011;15330;51.234;6.754;2023-04-29T13:06:46;38.67;;;27.33;;
28003;SDS011;15330;51.234;6.754;2023-04-29T13:09:12;38.97;;;29.25;;
28003;SDS011;15330;51.234;6.754;2023-04-29T13:11:37;37.70;;;27.45;;
28003;SDS011;15330;51.234;6.754;2023-04-29T13:14:03;44.33;;;31.05;;
28003;SDS011;15330;51.234;6.754;2023-04-29T13:16:31;44.88;;;31.23;;
28003;SDS011;15330;51.234;6.754;2023-04-29T13:18:57;46.28;;;29.55;;
28003;SDS011;15330;51.234;6.754;2023-04-29T13:21:22;38.50;;;29.00;;
28003;SDS011;15330;51.234;6.754;2023-04-29T13:23:48;47.38;;;30.23;;
28003;SDS011;15330;51.234;6.754;2023-04-29T13:26:13;52.75;;;37.13;;
28003;SDS011;15330;51.234;6.754;2023-04-29T13:28:38;42.10;;;32.55;;
28003;SDS011;15330;51.234;6.754;2023-04-29T13:31:04;41.90;;;31.88;;
28003;SDS011;15330;51.234;6.754;2023-04-29T13:33:29;44.53;;;33.00;;
28003;SDS011;15330;51.234;6.754;2023-04-29T13:35:55;44.05;;;32.90;;
28003;SDS011;15330;51.234;6.754;2023-04-29T13:38:20;42.75;;;33.25;;
28003;SDS011;15330;51.234;6.754;2023-04-29T13:40:45;43.70;;;33.22;;
28003;SDS011;15330;51.234;6.754;2023-04-29T13:43:11;48.50;;;34.65;;
28003;SDS011;15330;51.234;6.754;2023-04-29T13:45:36;47.00;;;36.65;;
28003;SDS011;15330;51.234;6.754;2023-04-29T13:48:02;47.17;;;34.88;;
28003;SDS011;15330;51.234;6.754;2023-04-29T13:50:27;45.72;;;34.25;;
28003;SDS011;15330;51.234;6.754;2023-04-29T13:52:53;45.92;;;35.92;;
28003;SDS011;15330;51.234;6.754;2023-04-29T13:55:19;76.55;;;49.88;;
28003;SDS011;15330;51.234;6.754;2023-04-29T13:57:45;46.88;;;35.35;;
28003;SDS011;15330;51.234;6.754;2023-04-29T14:00:10;46.30;;;33.47;;
28003;SDS011;15330;51.234;6.754;2023-04-29T14:02:36;50.40;;;37.03;;
28003;SDS011;15330;51.234;6.754;2023-04-29T14:05:02;48.80;;;37.33;;
28003;SDS011;15330;51.234;6.754;2023-04-29T14:07:28;51.95;;;38.90;;
28003;SDS011;15330;51.234;6.754;2023-04-29T14:09:53;54.03;;;37.67;;
28003;SDS011;15330;51.234;6.754;2023-04-29T14:12:18;51.35;;;36.47;;
28003;SDS011;15330;51.234;6.754;2023-04-29T14:14:44;51.22;;;34.78;;
28003;SDS011;15330;51.234;6.754;2023-04-29T14:17:09;45.42;;;31.20;;
28003;SDS011;15330;51.234;6.754;2023-04-29T14:19:35;40.17;;;29.08;;
28003;SDS011;15330;51.234;6.754;2023-04-29T14:22:00;39.15;;;27.20;;
28003;SDS011;15330;51.234;6.754;2023-04-29T14:24:25;39.35;;;26.33;;
28003;SDS011;15330;51.234;6.754;2023-04-29T14:26:51;38.78;;;26.98;;
28003;SDS011;15330;51.234;6.754;2023-04-29T14:29:17;33.15;;;25.05;;
28003;SDS011;15330;51.234;6.754;2023-04-29T14:31:43;31.45;;;23.20;;
28003;SDS011;15330;51.234;6.754;2023-04-29T14:34:08;32.67;;;23.80;;
28003;SDS011;15330;51.234;6.754;2023-04-29T14:36:34;31.88;;;22.70;;
28003;SDS011;15330;51.234;6.754;2023-04-29T14:39:00;30.52;;;21.50;;
28003;SDS011;15330;51.234;6.754;2023-04-29T14:41:25;30.50;;;19.98;;
28003;SDS011;15330;51.234;6.754;2023-04-29T14:43:51;33.28;;;20.38;;